createdAt,value
2018-08-31T00:02:26.385Z,14.30
2018-08-31T00:05:05.422Z,14.40
2018-08-31T00:08:45.118Z,14.30
2018-08-31T00:13:21.061Z,14.30
2018-08-31T00:15:48.915Z,14.30
2018-08-31T00:18:16.317Z,14.30
2018-08-31T00:20:43.713Z,14.30
2018-08-31T00:23:11.049Z,14.40
2018-08-31T00:26:01.387Z,14.20
2018-08-31T00:28:40.454Z,14.20
2018-08-31T00:31:19.333Z,14.20
2018-08-31T00:34:11.766Z,14.30
2018-08-31T00:39:33.548Z,14.20
2018-08-31T00:44:21.446Z,14.10
2018-08-31T00:46:48.878Z,14.30
2018-08-31T00:49:16.215Z,14.30
2018-08-31T00:51:43.686Z,14.20
2018-08-31T00:54:11.304Z,14.30
2018-08-31T00:56:38.649Z,14.30
2018-08-31T00:59:06.015Z,14.30
2018-08-31T01:01:33.502Z,14.20
2018-08-31T01:04:00.932Z,14.30
2018-08-31T01:06:28.299Z,14.20
2018-08-31T01:08:55.619Z,14.40
2018-08-31T01:11:23.046Z,14.30
2018-08-31T01:13:50.500Z,14.30
2018-08-31T01:16:17.990Z,14.30
2018-08-31T01:18:45.357Z,14.50
2018-08-31T01:21:12.691Z,14.60
2018-08-31T01:23:40.083Z,14.50
2018-08-31T01:26:07.439Z,14.50
2018-08-31T01:28:34.838Z,14.60
2018-08-31T01:31:02.286Z,14.50
2018-08-31T01:33:29.719Z,14.60
2018-08-31T01:35:57.065Z,14.60
2018-08-31T01:38:24.478Z,14.50
2018-08-31T01:40:51.918Z,14.50
2018-08-31T01:43:19.234Z,14.50
2018-08-31T01:45:46.630Z,14.50
2018-08-31T01:48:13.958Z,14.50
2018-08-31T01:50:46.977Z,14.40
2018-08-31T01:53:14.331Z,14.50
2018-08-31T01:55:41.679Z,14.50
2018-08-31T01:58:09.080Z,14.50
2018-08-31T02:00:36.593Z,14.50
2018-08-31T02:03:04.142Z,14.60
2018-08-31T02:05:31.560Z,14.80
2018-08-31T02:07:58.962Z,14.70
2018-08-31T02:10:26.354Z,14.70
2018-08-31T02:12:53.813Z,14.60
2018-08-31T02:15:21.245Z,14.60
2018-08-31T02:17:48.689Z,14.60
2018-08-31T02:20:16.115Z,14.50
2018-08-31T02:22:43.563Z,14.50
2018-08-31T02:25:10.997Z,14.50
2018-08-31T02:27:38.366Z,14.70
2018-08-31T02:30:05.924Z,14.60
2018-08-31T02:32:33.337Z,14.60
2018-08-31T02:35:00.760Z,14.70
2018-08-31T02:37:28.110Z,14.70
2018-08-31T02:39:55.496Z,14.50
2018-08-31T02:42:22.799Z,14.50
2018-08-31T02:44:50.110Z,14.50
2018-08-31T02:47:17.448Z,14.40
2018-08-31T02:49:44.794Z,14.30
2018-08-31T02:52:12.219Z,14.20
2018-08-31T02:54:39.677Z,14.40
2018-08-31T02:57:07.106Z,14.40
2018-08-31T02:59:34.440Z,14.40
2018-08-31T03:02:01.891Z,14.30
2018-08-31T03:04:29.373Z,14.30
2018-08-31T03:06:56.770Z,14.30
2018-08-31T03:09:24.108Z,14.40
2018-08-31T03:11:51.521Z,14.40
2018-08-31T03:14:19.009Z,14.30
2018-08-31T03:16:46.453Z,14.40
2018-08-31T03:19:13.894Z,14.40
2018-08-31T03:21:41.276Z,14.30
2018-08-31T03:24:08.698Z,14.20
2018-08-31T03:26:36.152Z,14.20
2018-08-31T03:29:03.492Z,14.10
2018-08-31T03:31:30.933Z,14.10
2018-08-31T03:33:58.261Z,14.10
2018-08-31T03:36:25.651Z,14.20
2018-08-31T03:38:53.097Z,14.00
2018-08-31T03:41:20.498Z,14.00
2018-08-31T03:43:48.034Z,14.10
2018-08-31T03:46:15.358Z,14.10
2018-08-31T03:48:42.810Z,14.20
2018-08-31T03:51:10.298Z,14.30
2018-08-31T03:53:37.730Z,14.20
2018-08-31T03:56:05.741Z,14.20
2018-08-31T03:58:33.073Z,14.30
2018-08-31T04:01:00.469Z,14.20
2018-08-31T04:03:27.939Z,14.20
2018-08-31T04:05:55.307Z,14.30
2018-08-31T04:08:22.649Z,14.40
2018-08-31T04:10:50.027Z,14.30
2018-08-31T04:13:17.518Z,14.30
2018-08-31T04:15:44.889Z,14.40
2018-08-31T04:18:12.301Z,14.40
2018-08-31T04:20:39.647Z,14.10
2018-08-31T04:23:07.044Z,13.90
2018-08-31T04:25:34.461Z,14.00
2018-08-31T04:28:01.933Z,14.00
2018-08-31T04:30:29.470Z,14.00
2018-08-31T04:32:56.874Z,14.00
2018-08-31T04:35:24.319Z,14.10
2018-08-31T04:37:51.802Z,14.10
2018-08-31T04:40:19.253Z,14.10
2018-08-31T04:42:46.742Z,14.10
2018-08-31T04:45:14.205Z,14.10
2018-08-31T04:47:41.658Z,14.10
2018-08-31T04:50:09.016Z,14.20
2018-08-31T04:52:36.466Z,14.20
2018-08-31T04:55:03.877Z,14.20
2018-08-31T04:57:31.285Z,14.30
2018-08-31T04:59:58.757Z,14.30
2018-08-31T05:02:26.097Z,14.40
2018-08-31T05:04:53.482Z,14.40
2018-08-31T05:07:20.793Z,14.40
2018-08-31T05:09:48.081Z,14.50
2018-08-31T05:12:15.477Z,14.40
2018-08-31T05:14:42.899Z,14.30
2018-08-31T05:17:10.346Z,14.30
2018-08-31T05:19:37.801Z,14.30
2018-08-31T05:22:05.293Z,14.30
2018-08-31T05:24:32.689Z,14.40
2018-08-31T05:27:00.099Z,14.50
2018-08-31T05:29:27.624Z,14.60
2018-08-31T05:31:54.988Z,14.70
2018-08-31T05:34:22.397Z,14.70
2018-08-31T05:36:49.833Z,14.70
2018-08-31T05:39:17.263Z,14.70
2018-08-31T05:41:44.683Z,14.60
2018-08-31T05:44:12.175Z,14.70
2018-08-31T05:46:39.475Z,14.70
2018-08-31T05:49:06.907Z,14.70
2018-08-31T05:51:34.289Z,14.80
2018-08-31T05:54:01.737Z,14.80
2018-08-31T05:56:29.079Z,14.80
2018-08-31T05:58:56.544Z,14.70
2018-08-31T06:01:23.963Z,14.80
2018-08-31T06:03:51.420Z,14.80
2018-08-31T06:06:18.868Z,14.80
2018-08-31T06:08:46.231Z,14.90
2018-08-31T06:11:13.613Z,14.90
2018-08-31T06:13:40.996Z,14.90
2018-08-31T06:16:08.602Z,14.80
2018-08-31T06:18:35.915Z,14.80
2018-08-31T06:21:03.354Z,14.90
2018-08-31T06:23:30.719Z,15.00
2018-08-31T06:25:58.063Z,15.00
2018-08-31T06:28:25.551Z,15.00
2018-08-31T06:30:53.138Z,15.10
2018-08-31T06:33:20.602Z,15.10
2018-08-31T06:35:48.050Z,15.20
2018-08-31T06:38:15.436Z,15.30
2018-08-31T06:40:42.923Z,15.30
2018-08-31T06:43:10.316Z,15.40
2018-08-31T06:45:37.708Z,15.50
2018-08-31T06:48:05.059Z,15.50
2018-08-31T06:50:32.482Z,15.40
2018-08-31T06:52:59.864Z,15.50
2018-08-31T06:55:27.225Z,15.40
2018-08-31T06:57:54.637Z,15.50
2018-08-31T07:00:22.145Z,15.60
2018-08-31T07:02:49.716Z,15.70
2018-08-31T07:05:17.189Z,15.70
2018-08-31T07:07:44.590Z,15.80
2018-08-31T07:10:11.990Z,15.70
2018-08-31T07:12:39.382Z,15.70
2018-08-31T07:15:06.991Z,15.70
2018-08-31T07:17:34.353Z,15.70
2018-08-31T07:20:01.772Z,15.70
2018-08-31T07:22:29.280Z,15.80
2018-08-31T07:24:56.641Z,15.90
2018-08-31T07:27:24.136Z,15.90
2018-08-31T07:29:51.565Z,15.90
2018-08-31T07:32:18.967Z,15.90
2018-08-31T07:34:46.256Z,16.00
2018-08-31T07:37:13.635Z,16.00
2018-08-31T07:39:41.125Z,16.00
2018-08-31T07:42:08.603Z,16.10
2018-08-31T07:44:35.992Z,16.10
2018-08-31T07:47:03.731Z,16.10
2018-08-31T07:49:31.148Z,16.20
2018-08-31T07:51:58.549Z,16.20
2018-08-31T07:54:25.936Z,16.30
2018-08-31T07:56:53.320Z,16.40
2018-08-31T07:59:20.681Z,16.40
2018-08-31T08:01:48.175Z,16.50
2018-08-31T08:04:15.492Z,16.60
2018-08-31T08:06:42.915Z,16.70
2018-08-31T08:09:10.642Z,16.80
2018-08-31T08:11:38.093Z,16.90
2018-08-31T08:14:06.093Z,17.00
2018-08-31T08:16:33.494Z,16.80
2018-08-31T08:19:00.942Z,17.00
2018-08-31T08:21:28.501Z,17.00
2018-08-31T08:23:56.002Z,17.10
2018-08-31T08:26:23.405Z,17.10
2018-08-31T08:28:50.798Z,17.20
2018-08-31T08:31:18.162Z,17.30
2018-08-31T08:33:45.829Z,17.50
2018-08-31T08:36:13.276Z,17.30
2018-08-31T08:38:40.674Z,17.40
2018-08-31T08:41:08.095Z,17.40
2018-08-31T08:43:35.574Z,17.20
2018-08-31T08:46:03.013Z,17.30
2018-08-31T08:48:30.499Z,17.50
2018-08-31T08:50:57.870Z,17.60
2018-08-31T08:53:25.315Z,17.50
2018-08-31T08:55:52.769Z,17.60
2018-08-31T08:58:20.246Z,17.70
2018-08-31T09:00:47.674Z,17.80
2018-08-31T09:03:15.036Z,17.80
2018-08-31T09:05:42.539Z,17.90
2018-08-31T09:08:09.937Z,17.90
2018-08-31T09:10:37.371Z,17.90
2018-08-31T09:13:04.732Z,17.90
2018-08-31T09:15:32.138Z,18.00
2018-08-31T09:17:59.482Z,18.10
2018-08-31T09:20:26.923Z,18.10
2018-08-31T09:22:54.367Z,18.20
2018-08-31T09:25:21.755Z,18.30
2018-08-31T09:27:49.188Z,18.40
2018-08-31T09:30:22.258Z,18.40
2018-08-31T09:32:49.655Z,18.50
2018-08-31T09:35:17.141Z,18.50
2018-08-31T09:37:44.665Z,18.50
2018-08-31T09:40:12.187Z,18.50
2018-08-31T09:42:39.628Z,18.50
2018-08-31T09:45:07.031Z,18.50
2018-08-31T09:47:34.454Z,18.60
2018-08-31T09:50:01.884Z,18.60
2018-08-31T09:52:29.295Z,18.50
2018-08-31T09:54:56.654Z,18.40
2018-08-31T09:57:24.120Z,18.40
2018-08-31T09:59:51.550Z,18.30
2018-08-31T10:02:23.910Z,18.30
2018-08-31T10:04:51.352Z,18.40
2018-08-31T10:07:18.778Z,18.50
2018-08-31T10:09:46.226Z,18.60
2018-08-31T10:12:13.548Z,18.60
2018-08-31T10:14:40.956Z,18.80
2018-08-31T10:17:08.421Z,18.70
2018-08-31T10:19:35.837Z,18.70
2018-08-31T10:22:03.241Z,18.70
2018-08-31T10:24:30.753Z,18.80
2018-08-31T10:26:58.201Z,18.80
2018-08-31T10:29:25.559Z,18.70
2018-08-31T10:31:52.959Z,18.80
2018-08-31T10:34:20.390Z,18.80
2018-08-31T10:36:47.817Z,18.90
2018-08-31T10:39:15.181Z,19.00
2018-08-31T10:41:42.571Z,19.10
2018-08-31T10:44:10.347Z,19.20
2018-08-31T10:46:37.815Z,19.20
2018-08-31T10:49:05.433Z,19.20
2018-08-31T10:51:32.843Z,19.40
2018-08-31T10:54:00.219Z,19.30
2018-08-31T10:56:27.604Z,19.20
2018-08-31T10:58:55.539Z,19.10
2018-08-31T11:01:23.116Z,19.00
2018-08-31T11:03:50.583Z,19.10
2018-08-31T11:06:17.975Z,19.00
2018-08-31T11:08:45.325Z,19.10
2018-08-31T11:11:12.656Z,19.10
2018-08-31T11:13:40.009Z,19.00
2018-08-31T11:16:07.527Z,19.00
2018-08-31T11:18:34.871Z,18.90
2018-08-31T11:21:02.236Z,19.10
2018-08-31T11:23:29.569Z,19.20
2018-08-31T11:25:57.037Z,19.20
2018-08-31T11:28:24.494Z,19.30
2018-08-31T11:30:51.963Z,19.20
2018-08-31T11:33:19.357Z,19.10
2018-08-31T11:35:46.841Z,19.10
2018-08-31T11:38:14.271Z,19.10
2018-08-31T11:40:41.821Z,19.10
2018-08-31T11:43:09.309Z,19.20
2018-08-31T11:45:36.709Z,19.30
2018-08-31T11:48:04.192Z,19.30
2018-08-31T11:50:31.630Z,19.20
2018-08-31T11:52:59.145Z,19.20
2018-08-31T11:55:26.633Z,19.20
2018-08-31T11:57:54.003Z,19.20
2018-08-31T12:00:21.581Z,19.10
2018-08-31T12:02:49.018Z,19.10
2018-08-31T12:05:16.392Z,19.20
2018-08-31T12:07:43.891Z,19.10
2018-08-31T12:10:11.365Z,19.10
2018-08-31T12:12:38.764Z,19.10
2018-08-31T12:15:06.254Z,19.10
2018-08-31T12:17:33.817Z,19.20
2018-08-31T12:20:01.211Z,19.20
2018-08-31T12:22:28.660Z,19.20
2018-08-31T12:24:56.153Z,19.10
2018-08-31T12:27:23.655Z,19.10
2018-08-31T12:29:51.105Z,19.10
2018-08-31T12:32:18.497Z,19.10
2018-08-31T12:34:45.977Z,19.20
2018-08-31T12:37:13.440Z,19.10
2018-08-31T12:39:40.883Z,19.10
2018-08-31T12:42:08.287Z,19.00
2018-08-31T12:44:35.824Z,19.00
2018-08-31T12:47:03.267Z,18.90
2018-08-31T12:49:30.753Z,19.00
2018-08-31T12:51:58.154Z,18.90
2018-08-31T12:54:25.520Z,19.00
2018-08-31T12:56:52.914Z,19.00
2018-08-31T12:59:20.444Z,18.90
2018-08-31T13:01:47.896Z,18.90
2018-08-31T13:04:15.242Z,18.90
2018-08-31T13:06:42.636Z,18.90
2018-08-31T13:09:10.027Z,18.80
2018-08-31T13:11:37.386Z,18.70
2018-08-31T13:14:04.912Z,18.70
2018-08-31T13:16:32.268Z,18.60
2018-08-31T13:18:59.610Z,18.50
2018-08-31T13:21:27.018Z,18.50
2018-08-31T13:23:54.456Z,18.50
2018-08-31T13:26:21.876Z,18.40
2018-08-31T13:28:49.223Z,18.40
2018-08-31T13:31:16.808Z,18.30
2018-08-31T13:33:44.123Z,18.30
2018-08-31T13:36:11.590Z,18.30
2018-08-31T13:38:39.030Z,18.20
2018-08-31T13:41:06.594Z,18.20
2018-08-31T13:43:33.942Z,18.20
2018-08-31T13:46:01.353Z,18.20
2018-08-31T13:48:28.737Z,18.20
2018-08-31T13:50:56.074Z,18.10
2018-08-31T13:53:23.585Z,18.10
2018-08-31T13:55:51.003Z,18.00
2018-08-31T13:58:18.506Z,18.00
2018-08-31T14:00:45.867Z,17.90
2018-08-31T14:03:13.383Z,17.90
2018-08-31T14:05:40.733Z,18.00
2018-08-31T14:08:08.110Z,18.00
2018-08-31T14:10:35.559Z,18.00
2018-08-31T14:13:03.079Z,18.00
2018-08-31T14:15:30.437Z,18.00
2018-08-31T14:17:57.882Z,17.90
2018-08-31T14:20:25.286Z,18.00
2018-08-31T14:22:52.624Z,17.90
2018-08-31T14:25:19.982Z,17.90
2018-08-31T14:27:47.505Z,17.80
2018-08-31T14:30:14.972Z,17.80
2018-08-31T14:32:42.457Z,17.90
2018-08-31T14:35:09.965Z,17.80
2018-08-31T14:37:37.408Z,17.90
2018-08-31T14:40:05.755Z,17.90
2018-08-31T14:42:33.129Z,18.00
2018-08-31T14:45:00.470Z,17.90
2018-08-31T14:47:27.929Z,17.90
2018-08-31T14:49:55.386Z,17.80
2018-08-31T14:52:22.747Z,17.90
2018-08-31T14:54:50.186Z,18.00
2018-08-31T14:57:17.691Z,18.00
2018-08-31T14:59:45.038Z,18.00
2018-08-31T15:02:12.446Z,18.00
2018-08-31T15:04:39.828Z,18.00
2018-08-31T15:07:07.253Z,18.10
2018-08-31T15:09:34.756Z,18.10
2018-08-31T15:12:02.199Z,18.10
2018-08-31T15:14:29.641Z,18.00
2018-08-31T15:16:57.121Z,18.00
2018-08-31T15:19:24.602Z,18.00
2018-08-31T15:21:52.001Z,18.00
2018-08-31T15:24:19.361Z,18.00
2018-08-31T15:26:46.737Z,17.90
2018-08-31T15:29:14.247Z,17.90
2018-08-31T15:31:41.733Z,17.90
2018-08-31T15:34:09.090Z,17.80
2018-08-31T15:36:36.420Z,17.90
2018-08-31T15:39:06.418Z,17.70
2018-08-31T15:41:33.879Z,17.80
2018-08-31T15:44:01.352Z,17.80
2018-08-31T15:46:28.823Z,17.80
2018-08-31T15:48:56.214Z,17.70
2018-08-31T15:51:24.691Z,17.70
2018-08-31T15:53:53.595Z,17.80
2018-08-31T15:56:20.886Z,17.70
2018-08-31T15:58:48.278Z,17.80
2018-08-31T16:01:15.727Z,17.80
2018-08-31T16:03:43.166Z,17.70
2018-08-31T16:06:10.499Z,17.70
2018-08-31T16:08:37.892Z,17.80
2018-08-31T16:11:05.269Z,17.70
2018-08-31T16:13:32.706Z,17.80
2018-08-31T16:16:00.173Z,17.70
2018-08-31T16:18:27.633Z,17.70
2018-08-31T16:20:55.027Z,17.60
2018-08-31T16:23:22.438Z,17.60
2018-08-31T16:25:49.874Z,17.60
2018-08-31T16:28:17.306Z,17.50
2018-08-31T16:30:44.852Z,17.40
2018-08-31T16:33:12.283Z,17.50
2018-08-31T16:35:39.837Z,17.40
2018-08-31T16:38:07.253Z,17.40
2018-08-31T16:40:34.624Z,17.50
2018-08-31T16:43:01.915Z,17.50
2018-08-31T16:45:29.348Z,17.50
2018-08-31T16:47:56.785Z,17.50
2018-08-31T16:50:24.316Z,17.60
2018-08-31T16:52:51.828Z,17.50
2018-08-31T16:55:19.237Z,17.60
2018-08-31T16:57:46.589Z,17.60
2018-08-31T17:00:13.984Z,17.70
2018-08-31T17:02:41.374Z,17.70
2018-08-31T17:05:08.781Z,17.60
2018-08-31T17:07:36.288Z,17.60
2018-08-31T17:10:03.790Z,17.60
2018-08-31T17:12:31.306Z,17.60
2018-08-31T17:14:58.706Z,17.60
2018-08-31T17:17:26.175Z,17.50
2018-08-31T17:19:53.637Z,17.50
2018-08-31T17:22:21.011Z,17.50
2018-08-31T17:24:48.535Z,17.50
2018-08-31T17:27:21.807Z,17.50
2018-08-31T17:29:49.198Z,17.50
2018-08-31T17:32:22.252Z,17.40
2018-08-31T17:34:55.424Z,17.40
2018-08-31T17:37:28.614Z,17.40
2018-08-31T17:39:56.711Z,17.40
2018-08-31T17:42:25.362Z,17.40
2018-08-31T17:44:52.743Z,17.30
2018-08-31T17:47:20.115Z,17.40
2018-08-31T17:49:47.483Z,17.40
2018-08-31T17:52:14.990Z,17.30
2018-08-31T17:54:42.387Z,17.30
2018-08-31T17:57:09.845Z,17.30
2018-08-31T17:59:37.335Z,17.10
2018-08-31T18:02:04.841Z,17.10
2018-08-31T18:04:32.130Z,17.10
2018-08-31T18:06:59.525Z,17.00
2018-08-31T18:09:27.095Z,17.00
2018-08-31T18:11:54.448Z,17.00
2018-08-31T18:14:21.866Z,17.00
2018-08-31T18:16:49.423Z,17.00
2018-08-31T18:19:16.843Z,17.00
2018-08-31T18:21:44.165Z,16.90
2018-08-31T18:24:11.550Z,16.90
2018-08-31T18:26:38.979Z,16.90
2018-08-31T18:29:06.346Z,16.90
2018-08-31T18:31:33.753Z,16.90
2018-08-31T18:34:01.673Z,16.80
2018-08-31T18:36:29.067Z,16.80
2018-08-31T18:38:56.471Z,16.80
2018-08-31T18:41:23.784Z,16.70
2018-08-31T18:43:51.295Z,16.80
2018-08-31T18:46:18.733Z,16.80
2018-08-31T18:48:46.154Z,16.80
2018-08-31T18:51:13.611Z,16.70
2018-08-31T18:53:41.031Z,16.70
2018-08-31T18:56:08.566Z,16.70
2018-08-31T18:58:36.081Z,16.60
2018-08-31T19:01:04.295Z,16.60
2018-08-31T19:03:31.699Z,16.70
2018-08-31T19:05:59.103Z,16.60
2018-08-31T19:08:26.466Z,16.60
2018-08-31T19:10:53.948Z,16.60
2018-08-31T19:13:21.410Z,16.50
2018-08-31T19:15:48.807Z,16.50
2018-08-31T19:18:16.250Z,16.50
2018-08-31T19:20:43.853Z,16.40
2018-08-31T19:23:11.318Z,16.50
2018-08-31T19:25:38.749Z,16.50
2018-08-31T19:28:06.222Z,16.60
2018-08-31T19:30:33.746Z,16.60
2018-08-31T19:33:01.203Z,16.50
2018-08-31T19:35:28.670Z,16.50
2018-08-31T19:37:56.092Z,16.50
2018-08-31T19:40:23.580Z,16.40
2018-08-31T19:42:50.998Z,16.50
2018-08-31T19:45:18.444Z,16.50
2018-08-31T19:47:45.938Z,16.40
2018-08-31T19:50:13.365Z,16.50
2018-08-31T19:52:40.679Z,16.40
2018-08-31T19:55:08.101Z,16.40
2018-08-31T19:57:35.537Z,16.40
2018-08-31T20:00:03.281Z,16.30
2018-08-31T20:02:30.660Z,16.40
2018-08-31T20:04:58.034Z,16.40
2018-08-31T20:07:25.562Z,16.30
2018-08-31T20:09:52.928Z,16.20
2018-08-31T20:12:20.341Z,16.30
2018-08-31T20:14:47.825Z,16.30
2018-08-31T20:17:15.229Z,16.30
2018-08-31T20:19:43.091Z,16.30
2018-08-31T20:22:11.607Z,16.20
2018-08-31T20:24:39.099Z,16.10
2018-08-31T20:27:06.623Z,16.20
2018-08-31T20:29:34.031Z,16.30
2018-08-31T20:32:01.525Z,16.30
2018-08-31T20:34:29.414Z,16.30
2018-08-31T20:36:56.745Z,16.30
2018-08-31T20:39:24.135Z,16.30
2018-08-31T20:41:51.625Z,16.30
2018-08-31T20:44:19.086Z,16.20
2018-08-31T20:46:46.636Z,16.20
2018-08-31T20:49:14.075Z,16.20
2018-08-31T20:51:41.534Z,16.10
2018-08-31T20:54:08.950Z,16.10
2018-08-31T20:56:36.364Z,16.20
2018-08-31T20:59:03.774Z,16.20
2018-08-31T21:01:31.147Z,16.20
2018-08-31T21:03:58.663Z,16.20
2018-08-31T21:06:26.099Z,16.10
2018-08-31T21:08:53.542Z,16.10
2018-08-31T21:11:20.978Z,16.20
2018-08-31T21:13:48.402Z,16.10
2018-08-31T21:16:15.912Z,16.20
2018-08-31T21:18:43.788Z,16.30
2018-08-31T21:21:11.232Z,16.20
2018-08-31T21:23:38.697Z,16.10
2018-08-31T21:26:06.379Z,16.10
2018-08-31T21:28:33.782Z,16.00
2018-08-31T21:31:01.215Z,15.90
2018-08-31T21:33:28.658Z,15.90
2018-08-31T21:35:56.020Z,16.00
2018-08-31T21:38:23.457Z,16.00
2018-08-31T21:40:50.876Z,15.90
2018-08-31T21:43:18.442Z,16.00
2018-08-31T21:45:46.179Z,16.00
2018-08-31T21:48:13.621Z,16.10
2018-08-31T21:50:40.991Z,16.00
2018-08-31T21:53:08.492Z,16.00
2018-08-31T21:55:35.945Z,16.10
2018-08-31T21:58:03.398Z,16.00
2018-08-31T22:00:35.377Z,15.90
2018-08-31T22:03:02.882Z,15.90
2018-08-31T22:05:30.281Z,15.90
2018-08-31T22:07:57.693Z,15.90
2018-08-31T22:10:25.051Z,15.80
2018-08-31T22:12:52.433Z,15.80
2018-08-31T22:15:25.494Z,15.80
2018-08-31T22:17:53.138Z,15.80
2018-08-31T22:20:20.795Z,15.80
2018-08-31T22:22:48.453Z,15.80
2018-08-31T22:25:15.781Z,15.80
2018-08-31T22:27:43.163Z,15.70
2018-08-31T22:30:10.577Z,15.80
2018-08-31T22:32:38.078Z,15.80
2018-08-31T22:35:05.657Z,15.80
2018-08-31T22:37:33.214Z,15.80
2018-08-31T22:40:00.791Z,15.70
2018-08-31T22:42:28.201Z,15.70
2018-08-31T22:44:55.660Z,15.70
2018-08-31T22:47:22.940Z,15.70
2018-08-31T22:49:50.395Z,15.80
2018-08-31T22:52:17.762Z,15.80
2018-08-31T22:54:45.206Z,15.90
2018-08-31T22:57:12.609Z,15.80
2018-08-31T22:59:40.107Z,15.80
2018-08-31T23:02:07.554Z,15.70
2018-08-31T23:04:35.042Z,15.70
2018-08-31T23:07:02.633Z,15.60
2018-08-31T23:09:30.048Z,15.60
2018-08-31T23:11:58.284Z,15.80
2018-08-31T23:14:25.644Z,15.70
2018-08-31T23:16:53.042Z,15.70
2018-08-31T23:19:20.509Z,15.70
2018-08-31T23:21:47.865Z,15.70
2018-08-31T23:24:15.220Z,15.50
2018-08-31T23:26:42.610Z,15.50
2018-08-31T23:29:09.956Z,15.40
2018-08-31T23:31:37.317Z,15.40
2018-08-31T23:34:04.723Z,15.50
2018-08-31T23:36:32.021Z,15.40
2018-08-31T23:38:59.447Z,15.40
2018-08-31T23:41:26.874Z,15.40
2018-08-31T23:43:54.184Z,15.30
2018-08-31T23:46:21.589Z,15.30
2018-08-31T23:48:48.906Z,15.20
2018-08-31T23:51:16.357Z,15.20
2018-08-31T23:53:43.826Z,15.30
2018-08-31T23:56:11.161Z,15.30
2018-08-31T23:58:38.642Z,15.30
